Time;durP1;ratioP1;P1;durP2;ratioP2;P2;SDS_P1;SDS_P2;PMS_P1;PMS_P2;Temp;Humidity;BMP_temperature;BMP_pressure;BME280_temperature;BME280_humidity;BME280_pressure;Samples;Min_cycle;Max_cycle;Signal;HPM_P1;HPM_P2
2022/04/10 00:00:50;;;;;;;21.33;2.55;;;;;;;5.49;65.96;101772.84;5092627;28;20029;-35
2022/04/10 00:03:15;;;;;;;23.02;3.15;;;;;;;5.52;65.18;101774.41;5092504;28;20036;-36
2022/04/10 00:05:40;;;;;;;19.65;2.63;;;;;;;5.54;65.36;101777.81;5091163;28;20029;-35
2022/04/10 00:08:06;;;;;;;12.43;2.13;;;;;;;5.55;64.75;101780.34;5092329;28;20082;-34
2022/04/10 00:10:31;;;;;;;22.88;2.85;;;;;;;5.55;65.15;101772.31;5074455;28;20051;-35
2022/04/10 00:12:56;;;;;;;23.25;2.60;;;;;;;5.56;64.61;101767.88;5089527;28;20020;-37
2022/04/10 00:15:22;;;;;;;13.27;2.10;;;;;;;5.60;64.01;101772.78;5090860;28;20033;-35
2022/04/10 00:17:47;;;;;;;18.00;2.63;;;;;;;5.61;64.54;101781.66;5091813;28;20070;-37
2022/04/10 00:20:13;;;;;;;10.55;2.45;;;;;;;5.64;63.20;101774.25;5091369;28;20024;-35
2022/04/10 00:22:47;;;;;;;15.70;2.03;;;;;;;5.63;63.58;101777.03;5092127;28;20058;-35
2022/04/10 00:25:14;;;;;;;8.52;1.63;;;;;;;5.61;64.48;101770.97;5090737;28;20032;-36
2022/04/10 00:27:40;;;;;;;20.40;2.13;;;;;;;5.62;62.72;101768.19;5090943;28;20024;-36
2022/04/10 00:30:07;;;;;;;17.30;1.85;;;;;;;5.58;62.33;101768.56;5090593;28;20273;-35
2022/04/10 00:32:32;;;;;;;15.25;1.88;;;;;;;5.64;60.94;101768.06;5091671;28;20054;-34
2022/04/10 00:34:57;;;;;;;8.77;1.42;;;;;;;5.58;62.26;101765.88;5091848;28;20032;-34
2022/04/10 00:37:23;;;;;;;16.85;2.10;;;;;;;5.51;61.67;101768.22;5093052;28;20093;-33
2022/04/10 00:39:48;;;;;;;8.38;1.90;;;;;;;5.56;61.12;101768.69;5092063;28;20096;-33
2022/04/10 00:42:14;;;;;;;12.95;1.65;;;;;;;5.48;62.40;101760.47;5074464;28;20031;-35
2022/04/10 00:44:39;;;;;;;15.00;2.90;;;;;;;5.41;62.37;101765.47;5091969;28;20039;-33
2022/04/10 00:47:05;;;;;;;16.25;2.17;;;;;;;5.38;62.27;101760.38;5090012;28;20028;-34
2022/04/10 00:49:31;;;;;;;14.07;2.05;;;;;;;5.33;63.16;101773.25;5090597;28;20063;-36
2022/04/10 00:51:56;;;;;;;10.98;1.50;;;;;;;5.30;63.01;101761.97;5091649;28;20041;-35
2022/04/10 00:54:29;;;;;;;6.82;1.35;;;;;;;5.32;61.89;101760.88;5092173;28;20084;-34
2022/04/10 00:56:56;;;;;;;6.85;1.98;;;;;;;5.31;62.19;101759.16;5092492;28;20057;-34
2022/04/10 00:59:21;;;;;;;14.43;1.67;;;;;;;5.29;62.12;101755.78;5092646;28;20013;-34
2022/04/10 01:01:47;;;;;;;14.00;1.90;;;;;;;5.30;62.53;101762.81;5091813;28;20099;-35
2022/04/10 01:04:13;;;;;;;12.02;1.98;;;;;;;5.25;62.96;101757.84;5092054;28;20085;-34
2022/04/10 01:06:40;;;;;;;13.98;2.28;;;;;;;5.22;63.41;101765.28;5092576;28;20079;-35
2022/04/10 01:09:06;;;;;;;12.48;2.20;;;;;;;5.21;63.45;101758.22;5092568;28;20020;-35
2022/04/10 01:11:33;;;;;;;11.63;1.63;;;;;;;5.20;64.07;101767.22;5091869;28;20044;-36
2022/04/10 01:13:59;;;;;;;14.13;1.88;;;;;;;5.15;64.48;101777.41;5092179;28;20025;-35
2022/04/10 01:16:24;;;;;;;14.73;2.00;;;;;;;5.13;64.88;101768.66;5092465;28;20024;-33
2022/04/10 01:18:51;;;;;;;11.85;2.17;;;;;;;5.13;65.27;101774.84;5092678;28;20347;-36
2022/04/10 01:21:25;;;;;;;20.30;2.50;;;;;;;5.17;63.90;101778.13;5092062;28;20021;-34
2022/04/10 01:23:55;;;;;;;14.05;2.17;;;;;;;5.18;64.82;101779.81;5091806;28;20051;-33
2022/04/10 01:26:22;;;;;;;11.05;2.00;;;;;;;5.16;64.73;101776.44;5107904;28;20067;-35
2022/04/10 01:28:58;;;;;;;10.48;1.90;;;;;;;5.12;65.15;101777.66;5091996;28;20025;-33
2022/04/10 01:31:23;;;;;;;15.27;2.45;;;;;;;5.10;65.00;101782.25;5092199;28;20024;-34
2022/04/10 01:33:50;;;;;;;19.67;2.63;;;;;;;5.09;65.10;101791.25;5091793;28;20430;-34
2022/04/10 01:36:15;;;;;;;8.98;2.20;;;;;;;5.05;64.41;101783.50;5091930;28;20047;-35
2022/04/10 01:38:41;;;;;;;15.02;2.10;;;;;;;5.07;64.57;101788.69;5091011;28;20016;-35
2022/04/10 01:41:11;;;;;;;14.98;1.75;;;;;;;5.02;64.73;101789.06;5089462;28;20104;-34
2022/04/10 01:43:47;;;;;;;15.48;1.80;;;;;;;4.99;65.37;101775.13;5091040;28;20111;-35
2022/04/10 01:46:13;;;;;;;11.25;2.00;;;;;;;4.96;65.44;101784.22;5090208;28;20025;-36
2022/04/10 01:48:38;;;;;;;13.98;1.85;;;;;;;4.99;65.41;101783.13;5089521;28;20048;-34
2022/04/10 01:51:04;;;;;;;6.03;1.73;;;;;;;5.01;65.13;101783.84;5089698;28;20065;-34
2022/04/10 01:53:30;;;;;;;13.02;1.70;;;;;;;4.99;65.59;101785.78;5090732;28;20158;-34
2022/04/10 01:55:55;;;;;;;30.40;4.65;;;;;;;5.05;65.03;101788.84;5090676;28;20041;-33
2022/04/10 01:58:20;;;;;;;14.68;1.95;;;;;;;5.00;65.54;101793.69;5090378;28;20135;-33
2022/04/10 02:00:46;;;;;;;14.52;2.53;;;;;;;4.99;65.67;101791.97;5090795;28;20047;-33
2022/04/10 02:03:11;;;;;;;21.45;1.95;;;;;;;4.97;66.21;101788.56;5091096;28;20036;-33
2022/04/10 02:05:36;;;;;;;21.70;2.22;;;;;;;4.97;66.15;101793.06;5091332;28;20107;-35
2022/04/10 02:08:02;;;;;;;8.43;1.67;;;;;;;4.96;66.50;101792.22;5111855;22;20058;-77
2022/04/10 02:10:27;;;;;;;12.48;1.88;;;;;;;4.98;67.06;101790.28;5056349;28;20025;-77
2022/04/10 02:12:52;;;;;;;9.30;2.20;;;;;;;5.00;66.66;101793.69;5066940;28;20020;-76
2022/04/10 02:15:17;;;;;;;13.63;2.10;;;;;;;5.02;67.10;101797.06;5069054;28;20066;-78
2022/04/10 02:17:43;;;;;;;14.13;1.90;;;;;;;5.03;65.83;101793.44;5050509;28;20029;-78
2022/04/10 02:20:08;;;;;;;13.07;2.28;;;;;;;5.09;65.83;101794.75;5051849;28;20401;-78
2022/04/10 02:22:34;;;;;;;14.15;1.70;;;;;;;5.13;64.56;101798.03;5051859;28;20037;-76
2022/04/10 02:24:59;;;;;;;9.88;1.60;;;;;;;5.11;64.57;101803.50;5062722;28;20035;-76
2022/04/10 02:27:24;;;;;;;7.90;1.42;;;;;;;5.17;64.34;101805.66;5071584;28;20124;-77
2022/04/10 02:29:50;;;;;;;17.00;1.83;;;;;;;5.18;64.15;101806.50;5071553;28;20032;-77
2022/04/10 02:32:15;;;;;;;7.82;1.88;;;;;;;5.20;64.61;101804.56;5070194;28;20024;-77
2022/04/10 02:34:40;;;;;;;17.30;1.52;;;;;;;5.24;64.63;101798.03;5071288;28;20104;-77
2022/04/10 02:37:06;;;;;;;9.00;1.20;;;;;;;5.30;64.11;101794.84;5071204;28;20070;-77
2022/04/10 02:39:31;;;;;;;11.27;1.65;;;;;;;5.30;63.89;101799.34;5071402;28;20029;-77
2022/04/10 02:41:56;;;;;;;11.55;1.58;;;;;;;5.37;63.94;101790.72;5061122;28;20036;-76
2022/04/10 02:44:22;;;;;;;9.00;1.85;;;;;;;5.39;63.78;101790.59;5051317;28;20025;-76
2022/04/10 02:46:47;;;;;;;14.25;1.63;;;;;;;5.42;63.02;101793.00;5049839;28;20033;-77
2022/04/10 02:49:13;;;;;;;9.18;1.90;;;;;;;5.39;63.49;101794.09;5053207;28;20047;-78
2022/04/10 02:51:38;;;;;;;14.18;2.00;;;;;;;5.40;62.74;101792.28;5052387;28;20079;-77
2022/04/10 02:54:04;;;;;;;10.15;1.30;;;;;;;5.40;62.89;101795.81;5049946;28;20072;-77
2022/04/10 02:56:29;;;;;;;11.15;1.35;;;;;;;5.37;63.43;101796.06;5052345;28;20043;-76
2022/04/10 02:58:54;;;;;;;10.85;1.30;;;;;;;5.34;64.08;101806.13;5051521;28;20064;-77
2022/04/10 03:01:20;;;;;;;15.80;2.55;;;;;;;5.30;64.13;101805.53;5050041;28;20017;-78
2022/04/10 03:03:45;;;;;;;12.95;1.95;;;;;;;5.27;63.89;101803.97;5051071;28;20075;-77
2022/04/10 03:06:10;;;;;;;17.30;1.75;;;;;;;5.20;64.28;101800.06;5052788;28;20029;-76
2022/04/10 03:08:36;;;;;;;9.88;1.52;;;;;;;5.22;64.33;101806.16;5072166;28;20049;-76
2022/04/10 03:11:03;;;;;;;13.10;2.10;;;;;;;5.19;64.51;101805.56;5072318;28;20421;-77
2022/04/10 03:13:29;;;;;;;9.65;1.55;;;;;;;5.15;65.39;101814.78;5074449;28;20472;-76
2022/04/10 03:15:54;;;;;;;7.15;1.45;;;;;;;5.12;65.31;101812.34;5086909;28;20035;-77
2022/04/10 03:18:19;;;;;;;7.60;1.77;;;;;;;5.10;65.24;101806.28;5095745;28;20028;-78
2022/04/10 03:20:45;;;;;;;10.80;1.70;;;;;;;5.10;65.30;101814.28;5100127;28;20020;-78
2022/04/10 03:23:10;;;;;;;8.05;1.30;;;;;;;5.05;65.69;101817.31;5091608;28;20027;-76
2022/04/10 03:25:36;;;;;;;20.60;2.88;;;;;;;5.02;66.66;101818.41;5090562;28;20467;-76
2022/04/10 03:28:01;;;;;;;9.35;1.30;;;;;;;5.00;66.02;101823.03;5091167;28;20047;-76
2022/04/10 03:30:27;;;;;;;15.30;1.83;;;;;;;4.98;65.97;101811.63;5091138;28;20081;-78
2022/04/10 03:32:52;;;;;;;10.52;1.98;;;;;;;4.97;66.56;101820.59;5090852;28;20020;-78
2022/04/10 03:35:17;;;;;;;14.68;2.55;;;;;;;4.97;66.56;101823.25;5091127;28;20460;-77
2022/04/10 03:37:43;;;;;;;10.57;2.03;;;;;;;4.93;66.50;101819.16;5090964;28;20357;-77
2022/04/10 03:40:09;;;;;;;5.75;1.80;;;;;;;4.91;66.39;101821.09;5090858;28;20102;-77
2022/04/10 03:42:39;;;;;;;13.60;1.80;;;;;;;4.92;66.73;101820.09;5089513;28;20063;-77
2022/04/10 03:45:08;;;;;;;5.55;1.50;;;;;;;4.92;66.50;101828.09;5090733;28;20044;-76
2022/04/10 03:47:33;;;;;;;13.43;1.88;;;;;;;4.97;66.83;101823.25;5090488;28;20155;-77
2022/04/10 03:49:59;;;;;;;23.90;2.47;;;;;;;4.97;66.70;101823.25;5090882;28;20070;-77
2022/04/10 03:52:24;;;;;;;10.00;1.70;;;;;;;4.94;66.72;101810.16;5090552;28;20665;-77
2022/04/10 03:54:50;;;;;;;7.70;1.65;;;;;;;4.94;66.24;101823.50;5089373;28;20043;-77
2022/04/10 03:57:15;;;;;;;9.70;1.60;;;;;;;4.92;66.40;101827.25;5089350;28;20052;-77
2022/04/10 03:59:40;;;;;;;11.73;2.17;;;;;;;4.96;65.87;101829.56;5090761;28;20096;-76
2022/04/10 04:02:06;;;;;;;11.88;1.77;;;;;;;4.93;65.87;101835.16;5090871;28;20021;-76
2022/04/10 04:04:31;;;;;;;15.82;2.13;;;;;;;5.00;65.86;101833.72;5090360;28;20487;-76
2022/04/10 04:06:56;;;;;;;12.57;1.67;;;;;;;4.97;66.50;101841.94;5088891;28;20088;-76
2022/04/10 04:09:22;;;;;;;13.60;1.50;;;;;;;4.95;67.03;101846.56;5090438;28;20107;-76
2022/04/10 04:11:47;;;;;;;19.45;1.88;;;;;;;4.93;67.09;101840.50;5089434;28;20024;-76
2022/04/10 04:14:13;;;;;;;7.43;1.30;;;;;;;4.92;67.26;101844.09;5090325;28;20437;-78
2022/04/10 04:16:39;;;;;;;8.27;1.70;;;;;;;4.92;66.57;101844.09;5089333;28;20219;-77
2022/04/10 04:19:05;;;;;;;13.20;2.03;;;;;;;4.89;67.20;101855.03;5094226;28;20142;-77
2022/04/10 04:21:30;;;;;;;12.52;2.30;;;;;;;4.91;66.50;101852.25;5089299;28;20024;-76
2022/04/10 04:23:55;;;;;;;16.02;1.40;;;;;;;4.89;66.99;101854.19;5090592;28;20064;-77
2022/04/10 04:26:21;;;;;;;12.15;1.60;;;;;;;4.85;67.01;101858.91;5091399;28;20060;-76
2022/04/10 04:28:46;;;;;;;12.75;1.83;;;;;;;4.84;67.00;101850.06;5090883;28;20111;-77
2022/04/10 04:31:11;;;;;;;12.70;2.03;;;;;;;4.79;67.15;101848.69;5090530;28;20134;-78
2022/04/10 04:33:37;;;;;;;20.08;3.25;;;;;;;4.72;67.88;101856.34;5105884;28;20024;-77
2022/04/10 04:36:02;;;;;;;9.82;2.05;;;;;;;4.70;68.51;101860.94;5091863;28;20032;-77
2022/04/10 04:38:27;;;;;;;10.05;1.75;;;;;;;4.66;68.70;101869.28;5093889;28;20399;-77
2022/04/10 04:40:53;;;;;;;9.25;1.80;;;;;;;4.67;68.56;101853.19;5094055;28;20111;-76
2022/04/10 04:43:18;;;;;;;13.13;3.15;;;;;;;4.67;68.75;101871.00;5094025;28;20080;-78
2022/04/10 04:45:43;;;;;;;10.30;1.80;;;;;;;4.66;68.88;101869.28;5094501;28;20073;-76
2022/04/10 04:48:09;;;;;;;9.63;1.40;;;;;;;4.68;68.74;101870.88;5092740;28;20046;-78
2022/04/10 04:50:34;;;;;;;9.95;1.63;;;;;;;4.68;68.93;101875.38;5094076;28;20043;-77
2022/04/10 04:52:59;;;;;;;11.13;1.67;;;;;;;4.75;68.53;101873.94;5094060;28;20032;-77
2022/04/10 04:55:25;;;;;;;7.75;1.80;;;;;;;4.76;68.89;101870.28;5092344;28;20479;-76
2022/04/10 04:57:50;;;;;;;8.02;1.83;;;;;;;4.78;68.98;101881.69;5093717;28;20093;-77
2022/04/10 05:00:16;;;;;;;7.32;1.40;;;;;;;4.83;68.62;101882.19;5093517;28;20054;-78
2022/04/10 05:02:41;;;;;;;14.25;1.63;;;;;;;4.83;68.88;101877.69;5092487;28;20051;-77
2022/04/10 05:05:07;;;;;;;9.27;1.58;;;;;;;4.86;68.91;101873.09;5093646;28;20020;-77
2022/04/10 05:07:33;;;;;;;12.80;1.65;;;;;;;4.92;68.45;101881.44;5093425;28;20048;-78
2022/04/10 05:09:58;;;;;;;8.98;1.63;;;;;;;4.92;68.80;101884.13;5093462;28;20460;-77
2022/04/10 05:12:23;;;;;;;13.73;2.40;;;;;;;4.94;68.87;101884.84;5093597;28;20028;-77
2022/04/10 05:14:49;;;;;;;6.60;1.50;;;;;;;5.01;68.44;101890.56;5091909;28;20044;-77
2022/04/10 05:17:14;;;;;;;7.60;1.40;;;;;;;5.03;68.15;101894.81;5092545;28;20040;-78
2022/04/10 05:19:40;;;;;;;10.98;2.00;;;;;;;5.09;67.69;101892.66;5093244;28;20099;-77
2022/04/10 05:22:05;;;;;;;13.80;1.70;;;;;;;5.20;67.12;101900.66;5093499;28;20107;-76
2022/04/10 05:24:30;;;;;;;13.00;1.63;;;;;;;5.23;67.02;101895.91;5092149;28;20055;-77
2022/04/10 05:26:56;;;;;;;10.27;1.95;;;;;;;5.29;67.02;101899.91;5093440;28;20024;-77
2022/04/10 05:29:21;;;;;;;16.27;2.55;;;;;;;5.42;66.42;101913.97;5091729;28;20032;-77
2022/04/10 05:31:46;;;;;;;8.88;1.65;;;;;;;5.59;66.63;101907.31;5093069;28;20012;-76
2022/04/10 05:34:12;;;;;;;6.15;1.75;;;;;;;5.80;65.80;101906.56;5093206;28;20495;-76
2022/04/10 05:36:37;;;;;;;10.98;1.60;;;;;;;5.85;65.05;101907.88;5093285;28;20099;-77
2022/04/10 05:39:02;;;;;;;13.60;1.60;;;;;;;6.14;63.25;101918.03;5092875;28;20023;-78
2022/04/10 05:41:28;;;;;;;6.50;1.45;;;;;;;6.30;62.58;101921.13;5092836;28;20484;-77
2022/04/10 05:43:53;;;;;;;9.25;1.67;;;;;;;6.38;62.43;101915.13;5092996;28;20028;-78
2022/04/10 05:46:18;;;;;;;7.50;1.50;;;;;;;7.04;60.94;101921.09;5092754;28;20020;-76
2022/04/10 05:48:45;;;;;;;9.50;1.45;;;;;;;7.85;59.26;101920.28;5092814;28;20027;-77
2022/04/10 05:51:10;;;;;;;12.27;1.50;;;;;;;8.52;55.18;101922.19;5092743;28;20028;-77
2022/04/10 05:53:35;;;;;;;8.90;1.50;;;;;;;8.75;54.24;101929.94;5092991;28;20581;-77
2022/04/10 05:56:01;;;;;;;8.55;1.48;;;;;;;9.55;52.52;101925.03;5093356;28;20572;-77
2022/04/10 05:58:26;;;;;;;9.35;1.70;;;;;;;10.29;49.67;101937.50;5093035;28;20427;-76
2022/04/10 06:00:52;;;;;;;12.88;1.55;;;;;;;10.83;47.97;101935.63;5093577;28;20111;-76
2022/04/10 06:03:18;;;;;;;5.95;1.15;;;;;;;11.32;46.82;101943.16;5094079;28;20476;-77
2022/04/10 06:05:43;;;;;;;7.10;1.48;;;;;;;11.38;46.90;101950.63;5095402;28;20028;-77
2022/04/10 06:08:08;;;;;;;6.40;1.60;;;;;;;12.01;45.25;101947.56;5099319;28;20131;-77
2022/04/10 06:10:34;;;;;;;11.65;1.58;;;;;;;12.19;44.91;101951.97;5105317;28;20088;-77
2022/04/10 06:13:09;;;;;;;12.32;1.67;;;;;;;12.23;44.86;101954.16;5103330;28;20074;-77
2022/04/10 06:15:34;;;;;;;7.60;1.25;;;;;;;12.21;44.50;101958.03;5110175;28;20020;-78
2022/04/10 06:18:00;;;;;;;8.38;1.67;;;;;;;11.74;46.26;101959.41;5106403;28;20039;-76
2022/04/10 06:20:26;;;;;;;11.27;1.98;;;;;;;11.67;46.79;101963.75;5093633;28;20024;-77
2022/04/10 06:22:51;;;;;;;11.07;1.40;;;;;;;11.37;46.86;101965.09;5092760;28;20052;-76
2022/04/10 06:25:17;;;;;;;8.35;1.58;;;;;;;11.14;46.94;101968.34;5090810;28;20067;-77
2022/04/10 06:27:42;;;;;;;11.90;1.65;;;;;;;10.80;48.23;101967.41;5091982;28;20103;-76
2022/04/10 06:30:08;;;;;;;22.35;2.35;;;;;;;10.39;48.10;101973.25;5091872;28;20032;-76
2022/04/10 06:32:33;;;;;;;13.10;1.73;;;;;;;9.91;49.28;101974.38;5091857;28;20158;-76
2022/04/10 06:34:58;;;;;;;11.07;2.17;;;;;;;9.68;49.48;101965.84;5091668;28;20033;-76
2022/04/10 06:37:23;;;;;;;8.20;1.65;;;;;;;9.45;50.30;101977.00;5090275;28;20031;-77
2022/04/10 06:39:49;;;;;;;7.40;1.85;;;;;;;9.21;52.25;101976.63;5092104;28;20024;-76
2022/04/10 06:42:14;;;;;;;9.35;1.40;;;;;;;9.46;51.07;101980.53;5091576;28;20027;-77
2022/04/10 06:44:43;;;;;;;8.05;1.80;;;;;;;9.72;49.57;101979.88;5090329;28;20452;-76
2022/04/10 06:47:08;;;;;;;14.23;1.67;;;;;;;9.73;50.76;101985.06;5091383;28;20028;-76
2022/04/10 06:49:34;;;;;;;13.40;1.55;;;;;;;10.49;48.02;101990.19;5091617;28;20031;-76
2022/04/10 06:52:00;;;;;;;7.38;1.40;;;;;;;11.40;45.42;101986.31;5091767;28;20032;-77
2022/04/10 06:54:25;;;;;;;7.72;1.80;;;;;;;12.27;43.66;101995.19;5091648;28;20028;-77
2022/04/10 06:56:50;;;;;;;8.45;1.77;;;;;;;13.06;41.58;101992.88;5091513;28;20016;-78
2022/04/10 06:59:15;;;;;;;7.05;1.40;;;;;;;13.49;41.81;101993.53;5090382;28;20340;-76
2022/04/10 07:01:41;;;;;;;7.55;1.80;;;;;;;14.05;41.12;102005.16;5091480;28;20411;-76
2022/04/10 07:04:06;;;;;;;8.40;1.75;;;;;;;15.29;38.08;102000.56;5091102;28;20717;-76
2022/04/10 07:06:31;;;;;;;14.27;1.50;;;;;;;15.11;37.44;101995.47;5090978;28;20052;-76
2022/04/10 07:08:57;;;;;;;7.28;1.95;;;;;;;15.36;37.33;102010.47;5091221;28;20083;-76
2022/04/10 07:11:23;;;;;;;5.63;1.25;;;;;;;15.90;36.02;102011.25;5091043;28;20051;-76
2022/04/10 07:13:48;;;;;;;11.68;1.90;;;;;;;16.43;34.58;102012.78;5091639;28;20027;-77
2022/04/10 07:16:14;;;;;;;11.27;1.50;;;;;;;16.74;34.50;102008.03;5091659;28;20028;-77
2022/04/10 07:18:39;;;;;;;7.90;1.90;;;;;;;16.76;34.05;102012.25;5091916;28;20016;-76
2022/04/10 07:21:04;;;;;;;7.10;1.40;;;;;;;16.28;34.55;102019.28;5091494;28;20146;-77
2022/04/10 07:23:42;;;;;;;6.50;1.73;;;;;;;16.81;32.73;102015.25;5092659;28;20024;-77
2022/04/10 07:26:08;;;;;;;7.35;1.77;;;;;;;16.42;34.00;102018.38;5090016;28;20035;-76
2022/04/10 07:28:34;;;;;;;4.18;1.23;;;;;;;17.08;31.33;102020.94;5091293;28;20024;-76
2022/04/10 07:31:00;;;;;;;5.85;1.67;;;;;;;16.57;31.44;102029.22;5091003;28;20030;-76
2022/04/10 07:33:25;;;;;;;5.07;1.17;;;;;;;16.88;31.71;102026.22;5090928;28;20440;-76
2022/04/10 07:35:51;;;;;;;13.70;1.60;;;;;;;16.84;32.39;102025.75;5090712;28;20027;-76
2022/04/10 07:38:17;;;;;;;7.25;1.45;;;;;;;16.32;32.81;102037.69;5090867;28;20028;-77
2022/04/10 07:40:43;;;;;;;7.28;1.30;;;;;;;15.99;33.00;102040.00;5089616;28;20440;-77
2022/04/10 07:43:08;;;;;;;10.38;1.52;;;;;;;16.20;33.70;102045.50;5090836;28;20056;-77
2022/04/10 07:48:18;;;;;;;7.47;1.88;;;;;;;17.19;31.52;102055.75;5091042;28;20062;-76
2022/04/10 07:50:43;;;;;;;12.13;1.95;;;;;;;16.21;33.23;102043.63;5090996;28;20515;-77
2022/04/10 07:53:09;;;;;;;13.43;1.60;;;;;;;15.25;36.07;102050.78;5091003;28;20028;-77
2022/04/10 07:55:34;;;;;;;9.82;1.40;;;;;;;15.33;35.96;102053.41;5091188;28;20089;-76
2022/04/10 07:58:00;;;;;;;6.78;1.33;;;;;;;15.73;35.25;102059.47;5090737;28;20052;-76
2022/04/10 08:00:26;;;;;;;10.45;1.80;;;;;;;15.47;35.44;102060.72;5090909;28;20473;-77
2022/04/10 08:02:52;;;;;;;7.63;1.90;;;;;;;14.58;36.93;102064.97;5090957;28;20107;-76
2022/04/10 08:05:19;;;;;;;6.30;1.98;;;;;;;14.07;38.14;102067.25;5090694;28;20060;-76
2022/04/10 08:07:44;;;;;;;6.88;1.55;;;;;;;14.08;36.98;102066.22;5090204;28;20048;-76
2022/04/10 08:10:10;;;;;;;6.85;1.30;;;;;;;13.94;37.21;102059.69;5090709;28;20113;-76
2022/04/10 08:12:36;;;;;;;6.53;1.80;;;;;;;15.33;34.75;102069.69;5092890;28;20028;-76
2022/04/10 08:15:03;;;;;;;10.50;1.80;;;;;;;15.69;34.48;102066.28;5093684;28;20107;-76
2022/04/10 08:17:28;;;;;;;6.38;1.45;;;;;;;16.36;33.47;102070.78;5094600;28;20020;-76
2022/04/10 08:19:53;;;;;;;8.68;1.80;;;;;;;16.64;32.16;102070.88;5094817;28;20441;-76
2022/04/10 08:22:25;;;;;;;14.25;1.95;;;;;;;17.36;33.32;102082.72;5093174;28;20513;-77
2022/04/10 08:24:51;;;;;;;6.57;1.83;;;;;;;18.60;30.73;102086.38;5093000;28;20024;-77
2022/04/10 08:27:16;;;;;;;6.93;1.70;;;;;;;18.56;30.34;102079.66;5093905;28;20115;-76
2022/04/10 08:29:42;;;;;;;11.88;1.98;;;;;;;18.19;31.76;102081.84;5094358;28;20428;-77
2022/04/10 08:32:07;;;;;;;11.68;1.92;;;;;;;18.33;31.72;102095.50;5094435;28;20506;-77
2022/04/10 08:34:32;;;;;;;14.88;2.38;;;;;;;18.79;30.01;102083.94;5096720;28;20088;-77
2022/04/10 08:37:03;;;;;;;9.90;1.85;;;;;;;18.10;30.77;102085.75;5096966;28;20122;-77
2022/04/10 08:39:29;;;;;;;8.82;2.00;;;;;;;18.18;28.86;102087.47;5096871;28;20024;-77
2022/04/10 08:41:57;;;;;;;12.25;1.50;;;;;;;18.34;26.53;102091.72;5097535;28;20020;-77
2022/04/10 08:44:22;;;;;;;;;;;;;;;18.19;27.16;102086.41;5098403;28;20039;-77
2022/04/10 08:46:48;;;;;;;6.03;1.10;;;;;;;19.13;26.17;102087.56;5096430;28;19908;-78
2022/04/10 08:49:14;;;;;;;7.43;1.40;;;;;;;18.96;25.89;102085.25;5098532;28;20024;-77
2022/04/10 08:51:39;;;;;;;8.45;1.30;;;;;;;19.28;27.02;102088.22;5093742;28;20034;-77
2022/04/10 08:54:06;;;;;;;9.95;2.03;;;;;;;19.39;26.86;102089.47;5098197;28;20047;-77
2022/04/10 08:56:31;;;;;;;8.47;1.43;;;;;;;19.63;25.79;102086.09;5093803;28;20028;-77
2022/04/10 08:58:56;;;;;;;6.35;1.83;;;;;;;19.82;25.98;102084.41;5094272;28;20313;-77
2022/04/10 09:01:22;;;;;;;7.75;1.60;;;;;;;19.80;26.88;102081.06;5095343;28;20036;-78
2022/04/10 09:03:48;;;;;;;15.88;1.75;;;;;;;19.84;24.77;102078.75;5094020;28;20032;-77
2022/04/10 09:06:13;;;;;;;9.40;1.80;;;;;;;19.59;26.25;102086.72;5094197;28;20020;-77
2022/04/10 09:08:39;;;;;;;5.90;1.45;;;;;;;20.13;25.63;102085.59;5094266;28;20141;-77
2022/04/10 09:11:08;;;;;;;9.18;2.33;;;;;;;19.94;25.20;102082.72;5094008;28;20028;-78
2022/04/10 09:13:36;;;;;;;9.82;2.28;;;;;;;19.70;27.47;102091.59;5093704;28;20024;-78
2022/04/10 09:16:07;;;;;;;;;;;;;;;19.98;25.34;102080.38;5094710;28;20364;-78
2022/04/10 09:18:52;;;;;;;11.75;1.95;;;;;;;18.75;27.21;102082.69;5094765;28;19919;-78
2022/04/10 09:21:20;;;;;;;8.43;1.52;;;;;;;18.35;28.95;102082.50;5097082;28;20028;-78
2022/04/10 09:23:57;;;;;;;9.52;1.35;;;;;;;19.21;27.32;102087.38;5096784;28;20476;-78
2022/04/10 09:26:23;;;;;;;14.10;2.08;;;;;;;19.61;24.61;102090.91;5100761;28;20035;-78
2022/04/10 09:28:49;;;;;;;8.60;1.38;;;;;;;19.84;24.32;102093.22;5094594;28;20024;-77
2022/04/10 09:31:23;;;;;;;9.70;1.60;;;;;;;19.58;26.10;102094.06;5092875;28;20028;-78
2022/04/10 09:33:50;;;;;;;5.78;1.40;;;;;;;20.03;26.11;102098.88;5094377;28;20020;-78
2022/04/10 09:36:27;;;;;;;8.25;1.60;;;;;;;20.13;24.69;102096.53;5094143;28;20031;-77
2022/04/10 09:38:53;;;;;;;7.55;1.50;;;;;;;20.22;25.88;102102.59;5094469;28;20099;-78
2022/04/10 09:41:19;;;;;;;6.60;1.95;;;;;;;20.68;24.73;102104.34;5093505;28;20128;-78
2022/04/10 09:43:45;;;;;;;8.70;1.63;;;;;;;20.99;25.24;102101.63;5093795;28;20364;-77
2022/04/10 09:46:13;;;;;;;7.55;1.38;;;;;;;21.46;25.10;102102.13;5094248;28;20335;-77
2022/04/10 09:48:38;;;;;;;15.25;2.60;;;;;;;21.07;25.47;102097.78;5093246;28;20021;-77
2022/04/10 09:51:04;;;;;;;9.32;1.80;;;;;;;20.53;25.44;102104.56;5091881;28;20024;-78
2022/04/10 09:53:32;;;;;;;7.97;1.75;;;;;;;20.57;25.38;102105.84;5092976;28;20024;-78
2022/04/10 09:56:02;;;;;;;13.55;2.30;;;;;;;20.49;26.57;102103.34;5108944;28;20476;-77
2022/04/10 09:58:29;;;;;;;10.25;1.70;;;;;;;20.90;25.33;102107.56;5092420;28;20043;-77
2022/04/10 10:00:55;;;;;;;7.65;1.85;;;;;;;20.81;25.34;102109.72;5092578;28;20107;-77
2022/04/10 10:03:28;;;;;;;14.60;2.08;;;;;;;20.32;26.51;102105.72;5092761;28;20032;-78
2022/04/10 10:05:54;;;;;;;9.07;2.00;;;;;;;19.80;26.70;102091.13;5092457;28;20028;-77
2022/04/10 10:08:20;;;;;;;9.32;2.17;;;;;;;19.61;25.42;102092.81;5093215;28;20152;-77
2022/04/10 10:10:46;;;;;;;12.85;2.13;;;;;;;19.91;27.71;102094.06;5090808;28;20016;-77
2022/04/10 10:13:14;;;;;;;7.03;1.88;;;;;;;20.02;26.75;102092.56;5092579;28;20047;-78
2022/04/10 10:15:41;;;;;;;11.68;2.15;;;;;;;19.85;27.60;102094.06;5093254;28;20024;-77
2022/04/10 10:18:08;;;;;;;11.23;2.22;;;;;;;19.43;29.08;102091.59;5093426;28;20380;-78
2022/04/10 10:20:34;;;;;;;9.30;2.35;;;;;;;19.48;26.85;102091.78;5092436;28;20140;-77
2022/04/10 10:23:01;;;;;;;21.38;2.85;;;;;;;19.08;28.32;102096.38;5094861;28;20050;-77
2022/04/10 10:25:34;;;;;;;12.50;2.38;;;;;;;17.88;28.50;102097.78;5093739;28;20039;-77
2022/04/10 10:28:31;;;;;;;18.10;3.92;;;;;;;18.00;30.18;102101.63;5109599;28;20391;-77
2022/04/10 10:31:06;;;;;;;15.93;2.58;;;;;;;18.39;30.12;102095.53;5092324;28;20118;-77
2022/04/10 10:33:34;;;;;;;10.23;2.30;;;;;;;18.73;29.48;102096.50;5092087;28;20398;-77
2022/04/10 10:36:00;;;;;;;9.77;2.30;;;;;;;18.25;27.97;102099.25;5090526;28;20028;-76
2022/04/10 10:38:31;;;;;;;9.07;2.80;;;;;;;18.52;29.19;102102.09;5092446;28;20067;-77
2022/04/10 10:41:10;;;;;;;16.08;2.20;;;;;;;19.78;24.29;102104.19;5090819;28;20031;-77
2022/04/10 10:43:35;;;;;;;12.05;2.20;;;;;;;19.89;25.65;102100.78;5090442;28;20032;-77
2022/04/10 10:46:01;;;;;;;11.02;2.30;;;;;;;19.36;26.40;102101.66;5091997;28;20031;-77
2022/04/10 10:48:31;;;;;;;12.50;2.30;;;;;;;20.18;24.90;102094.00;5092338;28;20032;-77
2022/04/10 10:51:09;;;;;;;9.85;2.47;;;;;;;19.59;26.17;102103.97;5092282;28;20058;-77
2022/04/10 10:53:52;;;;;;;8.38;1.80;;;;;;;18.61;29.35;102109.84;5091860;28;20020;-77
2022/04/10 10:56:17;;;;;;;15.25;2.65;;;;;;;18.06;30.30;102099.97;5107695;28;20032;-78
2022/04/10 10:58:43;;;;;;;10.27;2.42;;;;;;;18.53;28.70;102101.88;5091747;28;20294;-77
2022/04/10 11:01:11;;;;;;;19.33;3.35;;;;;;;19.34;28.14;102095.56;5091655;28;20039;-77
2022/04/10 11:03:58;;;;;;;11.60;2.50;;;;;;;18.78;28.40;102094.03;5090208;28;20439;-76
2022/04/10 11:06:24;;;;;;;;;;;;;;;19.98;25.27;102091.31;5091534;28;20028;-76
2022/04/10 11:08:49;;;;;;;8.00;2.50;;;;;;;20.58;25.21;102088.38;5091183;28;19954;-76
2022/04/10 11:11:18;;;;;;;12.80;2.75;;;;;;;21.16;25.99;102088.22;5089703;28;20359;-78
2022/04/10 11:13:44;;;;;;;11.73;3.15;;;;;;;20.91;25.52;102090.94;5106481;28;20149;-76
2022/04/10 11:16:10;;;;;;;12.13;2.20;;;;;;;19.86;27.14;102082.94;5091218;28;20099;-76
2022/04/10 11:18:48;;;;;;;8.23;2.65;;;;;;;19.71;26.17;102074.97;5091066;28;20043;-77
2022/04/10 11:21:18;;;;;;;16.23;3.20;;;;;;;18.78;27.44;102082.28;5091419;28;20027;-76
2022/04/10 11:23:47;;;;;;;12.57;2.72;;;;;;;20.15;26.21;102075.28;5091076;28;20027;-77
2022/04/10 11:26:14;;;;;;;10.27;2.22;;;;;;;20.65;25.26;102070.03;5106040;28;20119;-76